sensor_id;sensor_type;location;lat;lon;timestamp;pressure;altitude;pressure_sealevel;temperature;humidity
34983;BME280;21187;50.976;13.720;2023-04-10T00:03:13;99129.66;;;9.80;45.50
34983;BME280;21187;50.976;13.720;2023-04-10T00:08:15;99125.09;;;9.63;45.74
34983;BME280;21187;50.976;13.720;2023-04-10T00:13:17;99129.53;;;9.42;46.66
34983;BME280;21187;50.976;13.720;2023-04-10T00:18:19;99129.69;;;9.10;47.25
34983;BME280;21187;50.976;13.720;2023-04-10T00:23:21;99126.91;;;8.84;48.36
34983;BME280;21187;50.976;13.720;2023-04-10T00:28:23;99122.00;;;8.86;48.24
34983;BME280;21187;50.976;13.720;2023-04-10T00:33:25;99117.53;;;8.81;48.70
34983;BME280;21187;50.976;13.720;2023-04-10T00:38:27;99118.81;;;8.75;48.12
34983;BME280;21187;50.976;13.720;2023-04-10T00:43:30;99115.63;;;8.73;48.58
34983;BME280;21187;50.976;13.720;2023-04-10T00:48:32;99107.38;;;8.78;47.99
34983;BME280;21187;50.976;13.720;2023-04-10T00:53:34;99106.44;;;8.92;48.10
34983;BME280;21187;50.976;13.720;2023-04-10T00:58:36;99098.84;;;8.94;47.45
34983;BME280;21187;50.976;13.720;2023-04-10T01:03:38;99096.59;;;8.96;47.95
34983;BME280;21187;50.976;13.720;2023-04-10T01:08:56;99094.56;;;9.02;47.98
34983;BME280;21187;50.976;13.720;2023-04-10T01:19:36;99104.84;;;8.82;48.07
34983;BME280;21187;50.976;13.720;2023-04-10T01:29:52;99115.91;;;8.63;48.40
34983;BME280;21187;50.976;13.720;2023-04-10T01:34:59;99123.81;;;8.51;48.56
34983;BME280;21187;50.976;13.720;2023-04-10T01:40:08;99117.97;;;8.26;48.93
34983;BME280;21187;50.976;13.720;2023-04-10T01:45:17;99114.75;;;8.15;49.72
34983;BME280;21187;50.976;13.720;2023-04-10T01:50:23;99108.88;;;8.13;50.21
34983;BME280;21187;50.976;13.720;2023-04-10T01:55:26;99109.47;;;8.10;49.76
34983;BME280;21187;50.976;13.720;2023-04-10T02:00:41;99095.78;;;7.97;50.49
34983;BME280;21187;50.976;13.720;2023-04-10T02:10:59;99096.56;;;7.98;50.62
34983;BME280;21187;50.976;13.720;2023-04-10T02:16:06;99093.81;;;8.21;50.18
34983;BME280;21187;50.976;13.720;2023-04-10T02:21:09;99091.78;;;8.26;49.90
34983;BME280;21187;50.976;13.720;2023-04-10T02:26:14;99081.38;;;8.42;49.65
34983;BME280;21187;50.976;13.720;2023-04-10T02:31:16;99081.13;;;8.61;49.07
34983;BME280;21187;50.976;13.720;2023-04-10T02:36:18;99080.66;;;8.68;49.35
34983;BME280;21187;50.976;13.720;2023-04-10T02:41:21;99080.34;;;8.61;48.75
34983;BME280;21187;50.976;13.720;2023-04-10T02:46:23;99085.75;;;8.61;48.60
34983;BME280;21187;50.976;13.720;2023-04-10T02:51:26;99085.88;;;8.56;49.38
34983;BME280;21187;50.976;13.720;2023-04-10T02:56:28;99085.38;;;8.54;48.71
34983;BME280;21187;50.976;13.720;2023-04-10T03:01:30;99081.03;;;8.44;48.97
34983;BME280;21187;50.976;13.720;2023-04-10T03:06:33;99076.09;;;8.37;48.63
34983;BME280;21187;50.976;13.720;2023-04-10T03:11:35;99083.09;;;8.38;49.03
34983;BME280;21187;50.976;13.720;2023-04-10T03:16:37;99085.13;;;8.32;48.94
34983;BME280;21187;50.976;13.720;2023-04-10T03:21:39;99090.28;;;8.11;49.62
34983;BME280;21187;50.976;13.720;2023-04-10T03:26:41;99089.94;;;8.04;49.78
34983;BME280;21187;50.976;13.720;2023-04-10T03:31:43;99085.84;;;8.15;49.27
34983;BME280;21187;50.976;13.720;2023-04-10T03:36:45;99091.59;;;8.23;49.25
34983;BME280;21187;50.976;13.720;2023-04-10T03:41:48;99093.34;;;8.27;50.02
34983;BME280;21187;50.976;13.720;2023-04-10T03:46:51;99087.19;;;8.27;50.22
34983;BME280;21187;50.976;13.720;2023-04-10T03:51:54;99091.47;;;8.28;50.00
34983;BME280;21187;50.976;13.720;2023-04-10T03:56:56;99093.59;;;8.40;50.09
34983;BME280;21187;50.976;13.720;2023-04-10T04:01:58;99096.03;;;8.59;49.13
34983;BME280;21187;50.976;13.720;2023-04-10T04:07:01;99094.31;;;8.63;49.50
34983;BME280;21187;50.976;13.720;2023-04-10T04:12:19;99104.63;;;8.61;49.51
34983;BME280;21187;50.976;13.720;2023-04-10T04:17:48;99103.88;;;8.78;49.82
34983;BME280;21187;50.976;13.720;2023-04-10T04:23:08;99106.41;;;8.74;48.98
34983;BME280;21187;50.976;13.720;2023-04-10T04:28:36;99107.66;;;8.68;49.93
34983;BME280;21187;50.976;13.720;2023-04-10T04:33:50;99116.25;;;8.70;49.59
34983;BME280;21187;50.976;13.720;2023-04-10T04:39:18;99119.59;;;8.76;49.67
34983;BME280;21187;50.976;13.720;2023-04-10T04:44:39;99113.59;;;8.79;50.50
34983;BME280;21187;50.976;13.720;2023-04-10T04:50:01;99111.25;;;8.95;50.49
34983;BME280;21187;50.976;13.720;2023-04-10T04:55:35;99109.66;;;9.11;50.08
34983;BME280;21187;50.976;13.720;2023-04-10T05:01:03;99116.34;;;9.23;49.69
34983;BME280;21187;50.976;13.720;2023-04-10T05:06:24;99122.56;;;9.32;49.15
34983;BME280;21187;50.976;13.720;2023-04-10T05:11:50;99117.94;;;9.41;49.15
34983;BME280;21187;50.976;13.720;2023-04-10T05:17:12;99127.31;;;9.53;49.68
34983;BME280;21187;50.976;13.720;2023-04-10T05:22:19;99125.88;;;9.64;49.84
34983;BME280;21187;50.976;13.720;2023-04-10T05:27:44;99130.63;;;9.85;49.71
34983;BME280;21187;50.976;13.720;2023-04-10T05:33:03;99131.88;;;9.96;48.71
34983;BME280;21187;50.976;13.720;2023-04-10T05:38:21;99125.34;;;10.06;49.38
34983;BME280;21187;50.976;13.720;2023-04-10T05:43:42;99134.06;;;10.20;48.73
34983;BME280;21187;50.976;13.720;2023-04-10T05:48:43;99128.44;;;10.34;48.61
34983;BME280;21187;50.976;13.720;2023-04-10T05:54:02;99128.72;;;10.50;49.02
34983;BME280;21187;50.976;13.720;2023-04-10T05:59:24;99129.94;;;10.61;48.64
34983;BME280;21187;50.976;13.720;2023-04-10T06:04:34;99124.28;;;10.75;48.78
34983;BME280;21187;50.976;13.720;2023-04-10T06:09:37;99120.63;;;11.01;49.05
34983;BME280;21187;50.976;13.720;2023-04-10T06:14:41;99122.06;;;11.28;49.12
34983;BME280;21187;50.976;13.720;2023-04-10T06:19:43;99122.75;;;11.59;49.02
34983;BME280;21187;50.976;13.720;2023-04-10T06:24:45;99133.03;;;11.87;49.22
34983;BME280;21187;50.976;13.720;2023-04-10T06:29:47;99130.72;;;12.10;48.68
34983;BME280;21187;50.976;13.720;2023-04-10T06:34:54;99117.09;;;12.43;48.53
34983;BME280;21187;50.976;13.720;2023-04-10T06:40:03;99114.16;;;12.73;48.24
34983;BME280;21187;50.976;13.720;2023-04-10T06:45:06;99116.19;;;12.89;48.25
34983;BME280;21187;50.976;13.720;2023-04-10T06:50:08;99112.63;;;13.13;48.29
34983;BME280;21187;50.976;13.720;2023-04-10T06:55:10;99109.91;;;13.54;47.91
34983;BME280;21187;50.976;13.720;2023-04-10T07:00:13;99104.13;;;13.84;47.37
34983;BME280;21187;50.976;13.720;2023-04-10T07:05:16;99114.25;;;13.99;46.73
34983;BME280;21187;50.976;13.720;2023-04-10T07:10:18;99107.34;;;14.18;46.51
34983;BME280;21187;50.976;13.720;2023-04-10T07:15:20;99109.59;;;14.47;45.94
34983;BME280;21187;50.976;13.720;2023-04-10T07:20:22;99099.59;;;14.84;45.32
34983;BME280;21187;50.976;13.720;2023-04-10T07:25:24;99112.38;;;14.99;44.89
34983;BME280;21187;50.976;13.720;2023-04-10T07:30:25;99106.53;;;15.17;44.66
34983;BME280;21187;50.976;13.720;2023-04-10T07:35:27;99099.78;;;15.30;44.56
34983;BME280;21187;50.976;13.720;2023-04-10T07:40:30;99099.63;;;15.42;44.19
34983;BME280;21187;50.976;13.720;2023-04-10T07:45:32;99090.88;;;15.53;43.93
34983;BME280;21187;50.976;13.720;2023-04-10T07:50:34;99084.19;;;15.70;44.23
34983;BME280;21187;50.976;13.720;2023-04-10T07:55:44;99086.91;;;15.89;44.26
34983;BME280;21187;50.976;13.720;2023-04-10T08:00:49;99091.28;;;15.94;44.06
34983;BME280;21187;50.976;13.720;2023-04-10T08:05:51;99082.47;;;16.04;44.08
34983;BME280;21187;50.976;13.720;2023-04-10T08:10:52;99086.75;;;16.25;43.84
34983;BME280;21187;50.976;13.720;2023-04-10T08:15:54;99079.78;;;16.54;43.54
34983;BME280;21187;50.976;13.720;2023-04-10T08:20:56;99082.03;;;16.75;43.29
34983;BME280;21187;50.976;13.720;2023-04-10T08:25:58;99079.06;;;16.88;43.14
34983;BME280;21187;50.976;13.720;2023-04-10T08:31:00;99073.06;;;17.02;43.05
34983;BME280;21187;50.976;13.720;2023-04-10T08:36:03;99063.16;;;17.24;42.81
34983;BME280;21187;50.976;13.720;2023-04-10T08:41:09;99060.28;;;17.47;42.34
34983;BME280;21187;50.976;13.720;2023-04-10T08:46:14;99046.03;;;17.65;42.15
34983;BME280;21187;50.976;13.720;2023-04-10T08:51:19;99048.03;;;17.71;41.87
34983;BME280;21187;50.976;13.720;2023-04-10T08:56:28;99039.16;;;17.82;41.40
34983;BME280;21187;50.976;13.720;2023-04-10T09:01:32;99049.84;;;17.94;41.45
34983;BME280;21187;50.976;13.720;2023-04-10T09:06:35;99039.06;;;18.16;41.24
34983;BME280;21187;50.976;13.720;2023-04-10T09:17:16;99021.69;;;18.53;40.91
34983;BME280;21187;50.976;13.720;2023-04-10T09:22:29;99023.00;;;18.73;40.55
34983;BME280;21187;50.976;13.720;2023-04-10T09:27:34;99021.56;;;18.94;40.30
34983;BME280;21187;50.976;13.720;2023-04-10T09:32:44;99024.38;;;19.16;39.95
34983;BME280;21187;50.976;13.720;2023-04-10T09:37:47;99029.09;;;19.15;39.81
34983;BME280;21187;50.976;13.720;2023-04-10T09:42:49;99016.91;;;19.09;39.42
34983;BME280;21187;50.976;13.720;2023-04-10T09:48:05;99005.13;;;19.05;39.10
34983;BME280;21187;50.976;13.720;2023-04-10T09:53:11;98995.34;;;19.15;38.62
34983;BME280;21187;50.976;13.720;2023-04-10T09:58:14;98988.69;;;19.16;38.65
34983;BME280;21187;50.976;13.720;2023-04-10T10:03:18;98984.03;;;19.34;38.68
34983;BME280;21187;50.976;13.720;2023-04-10T10:08:22;98974.63;;;19.46;38.32
34983;BME280;21187;50.976;13.720;2023-04-10T10:13:36;98969.97;;;19.68;37.71
34983;BME280;21187;50.976;13.720;2023-04-10T10:18:53;98968.41;;;19.74;37.17
34983;BME280;21187;50.976;13.720;2023-04-10T10:23:58;98953.84;;;19.70;36.88
34983;BME280;21187;50.976;13.720;2023-04-10T10:29:08;98951.94;;;19.85;36.59
34983;BME280;21187;50.976;13.720;2023-04-10T10:34:11;98951.94;;;19.96;36.51
34983;BME280;21187;50.976;13.720;2023-04-10T10:39:35;98936.22;;;19.82;36.00
34983;BME280;21187;50.976;13.720;2023-04-10T10:44:51;98927.53;;;19.26;36.07
34983;BME280;21187;50.976;13.720;2023-04-10T10:49:56;98921.28;;;19.51;36.04
34983;BME280;21187;50.976;13.720;2023-04-10T10:54:58;98919.72;;;19.78;35.26
34983;BME280;21187;50.976;13.720;2023-04-10T11:00:01;98907.97;;;19.89;35.18
34983;BME280;21187;50.976;13.720;2023-04-10T11:05:03;98905.59;;;19.98;34.74
34983;BME280;21187;50.976;13.720;2023-04-10T11:10:05;98893.38;;;20.14;34.84
34983;BME280;21187;50.976;13.720;2023-04-10T11:15:07;98891.03;;;20.16;34.23
34983;BME280;21187;50.976;13.720;2023-04-10T11:20:09;98876.50;;;20.11;33.48
34983;BME280;21187;50.976;13.720;2023-04-10T11:25:11;98867.84;;;20.13;33.22
34983;BME280;21187;50.976;13.720;2023-04-10T11:30:27;98858.03;;;20.12;33.21
34983;BME280;21187;50.976;13.720;2023-04-10T11:35:30;98859.19;;;20.11;32.80
34983;BME280;21187;50.976;13.720;2023-04-10T11:40:32;98843.50;;;20.11;32.85
34983;BME280;21187;50.976;13.720;2023-04-10T11:45:34;98846.63;;;20.17;32.80
34983;BME280;21187;50.976;13.720;2023-04-10T11:50:36;98825.31;;;20.36;32.43
34983;BME280;21187;50.976;13.720;2023-04-10T11:55:38;98835.16;;;20.29;31.62
34983;BME280;21187;50.976;13.720;2023-04-10T12:00:40;98828.94;;;20.22;31.18
34983;BME280;21187;50.976;13.720;2023-04-10T12:05:46;98808.47;;;20.23;30.60
34983;BME280;21187;50.976;13.720;2023-04-10T12:10:48;98812.84;;;20.09;30.79
34983;BME280;21187;50.976;13.720;2023-04-10T12:15:50;98803.72;;;20.31;30.83
34983;BME280;21187;50.976;13.720;2023-04-10T12:20:52;98792.56;;;20.63;30.50
34983;BME280;21187;50.976;13.720;2023-04-10T12:31:08;98807.94;;;20.57;29.37
34983;BME280;21187;50.976;13.720;2023-04-10T12:36:20;98787.44;;;20.65;30.04
34983;BME280;21187;50.976;13.720;2023-04-10T12:41:25;98799.19;;;20.80;29.64
34983;BME280;21187;50.976;13.720;2023-04-10T12:46:28;98785.75;;;20.89;28.54
34983;BME280;21187;50.976;13.720;2023-04-10T12:51:50;98786.59;;;20.79;28.51
34983;BME280;21187;50.976;13.720;2023-04-10T12:56:52;98776.16;;;20.41;28.34
34983;BME280;21187;50.976;13.720;2023-04-10T13:01:55;98765.13;;;20.49;28.82
34983;BME280;21187;50.976;13.720;2023-04-10T13:06:57;98784.34;;;20.56;28.67
34983;BME280;21187;50.976;13.720;2023-04-10T13:11:59;98756.16;;;20.37;28.31
34983;BME280;21187;50.976;13.720;2023-04-10T13:17:02;98769.56;;;20.28;28.74
34983;BME280;21187;50.976;13.720;2023-04-10T13:22:04;98756.28;;;20.12;28.76
34983;BME280;21187;50.976;13.720;2023-04-10T13:27:05;98744.63;;;19.83;28.62
34983;BME280;21187;50.976;13.720;2023-04-10T13:32:08;98735.94;;;19.95;28.60
34983;BME280;21187;50.976;13.720;2023-04-10T13:37:10;98730.72;;;20.19;28.19
34983;BME280;21187;50.976;13.720;2023-04-10T13:42:14;98722.53;;;20.08;28.21
34983;BME280;21187;50.976;13.720;2023-04-10T13:47:16;98706.91;;;19.90;28.79
34983;BME280;21187;50.976;13.720;2023-04-10T13:52:18;98702.13;;;20.02;28.24
34983;BME280;21187;50.976;13.720;2023-04-10T13:57:20;98691.47;;;20.11;28.24
34983;BME280;21187;50.976;13.720;2023-04-10T14:02:22;98690.28;;;20.12;28.03
34983;BME280;21187;50.976;13.720;2023-04-10T14:07:24;98690.00;;;19.92;27.52
34983;BME280;21187;50.976;13.720;2023-04-10T14:12:29;98665.22;;;19.99;28.03
34983;BME280;21187;50.976;13.720;2023-04-10T14:17:31;98680.09;;;20.13;27.48
34983;BME280;21187;50.976;13.720;2023-04-10T14:22:33;98672.19;;;20.15;26.98
34983;BME280;21187;50.976;13.720;2023-04-10T14:27:35;98666.78;;;20.04;26.85
34983;BME280;21187;50.976;13.720;2023-04-10T14:32:37;98656.66;;;19.75;26.53
34983;BME280;21187;50.976;13.720;2023-04-10T14:37:39;98654.72;;;19.72;26.75
34983;BME280;21187;50.976;13.720;2023-04-10T14:42:41;98645.72;;;19.72;27.26
34983;BME280;21187;50.976;13.720;2023-04-10T14:47:43;98637.13;;;19.62;27.17
34983;BME280;21187;50.976;13.720;2023-04-10T14:52:46;98634.78;;;19.54;27.59
34983;BME280;21187;50.976;13.720;2023-04-10T14:57:47;98622.28;;;19.45;27.48
34983;BME280;21187;50.976;13.720;2023-04-10T15:02:49;98621.88;;;19.40;27.54
34983;BME280;21187;50.976;13.720;2023-04-10T15:07:52;98609.00;;;19.29;27.86
34983;BME280;21187;50.976;13.720;2023-04-10T15:12:54;98609.03;;;19.11;27.78
34983;BME280;21187;50.976;13.720;2023-04-10T15:17:56;98596.53;;;18.89;27.62
34983;BME280;21187;50.976;13.720;2023-04-10T15:22:58;98578.47;;;18.88;27.93
34983;BME280;21187;50.976;13.720;2023-04-10T15:28:02;98574.59;;;18.89;28.04
34983;BME280;21187;50.976;13.720;2023-04-10T15:33:04;98574.97;;;18.76;28.06
34983;BME280;21187;50.976;13.720;2023-04-10T15:38:07;98566.78;;;18.58;28.08
34983;BME280;21187;50.976;13.720;2023-04-10T15:43:11;98547.19;;;18.49;27.97
34983;BME280;21187;50.976;13.720;2023-04-10T15:48:13;98549.53;;;18.29;28.38
34983;BME280;21187;50.976;13.720;2023-04-10T15:53:15;98554.25;;;18.18;28.31
34983;BME280;21187;50.976;13.720;2023-04-10T15:58:23;98542.13;;;18.04;28.66
34983;BME280;21187;50.976;13.720;2023-04-10T16:03:26;98526.06;;;17.99;28.55
34983;BME280;21187;50.976;13.720;2023-04-10T16:08:31;98532.31;;;17.96;28.75
34983;BME280;21187;50.976;13.720;2023-04-10T16:13:32;98522.94;;;18.04;28.69
34983;BME280;21187;50.976;13.720;2023-04-10T16:18:34;98517.44;;;18.01;28.77
34983;BME280;21187;50.976;13.720;2023-04-10T16:23:36;98506.09;;;18.02;28.91
34983;BME280;21187;50.976;13.720;2023-04-10T16:28:38;98503.34;;;18.02;29.05
34983;BME280;21187;50.976;13.720;2023-04-10T16:33:40;98503.38;;;17.95;29.04
34983;BME280;21187;50.976;13.720;2023-04-10T16:38:42;98499.41;;;17.82;29.18
34983;BME280;21187;50.976;13.720;2023-04-10T16:43:45;98489.63;;;17.77;29.39
34983;BME280;21187;50.976;13.720;2023-04-10T16:48:47;98491.19;;;17.67;29.32
34983;BME280;21187;50.976;13.720;2023-04-10T16:53:49;98491.56;;;17.62;29.59
34983;BME280;21187;50.976;13.720;2023-04-10T16:58:51;98484.50;;;17.61;29.60
34983;BME280;21187;50.976;13.720;2023-04-10T17:03:54;98468.84;;;17.54;29.84
34983;BME280;21187;50.976;13.720;2023-04-10T17:08:56;98463.38;;;17.51;29.80
34983;BME280;21187;50.976;13.720;2023-04-10T17:13:58;98464.91;;;17.37;29.96
34983;BME280;21187;50.976;13.720;2023-04-10T17:19:01;98455.50;;;17.24;30.14
34983;BME280;21187;50.976;13.720;2023-04-10T17:24:03;98453.91;;;17.08;30.42
34983;BME280;21187;50.976;13.720;2023-04-10T17:29:05;98456.22;;;16.99;30.42
34983;BME280;21187;50.976;13.720;2023-04-10T17:34:07;98446.03;;;16.92;30.58
34983;BME280;21187;50.976;13.720;2023-04-10T17:39:09;98452.97;;;16.75;30.77
34983;BME280;21187;50.976;13.720;2023-04-10T17:44:11;98448.19;;;16.58;30.99
34983;BME280;21187;50.976;13.720;2023-04-10T17:49:13;98442.69;;;16.47;30.96
34983;BME280;21187;50.976;13.720;2023-04-10T17:54:15;98435.59;;;16.35;31.09
34983;BME280;21187;50.976;13.720;2023-04-10T17:59:17;98435.53;;;16.28;31.27
34983;BME280;21187;50.976;13.720;2023-04-10T18:04:19;98421.38;;;16.11;31.42
34983;BME280;21187;50.976;13.720;2023-04-10T18:09:21;98414.28;;;16.03;31.58
34983;BME280;21187;50.976;13.720;2023-04-10T18:14:24;98408.00;;;15.95;31.53
34983;BME280;21187;50.976;13.720;2023-04-10T18:19:26;98416.44;;;15.79;31.89
34983;BME280;21187;50.976;13.720;2023-04-10T18:24:30;98410.13;;;15.68;32.07
34983;BME280;21187;50.976;13.720;2023-04-10T18:29:32;98408.53;;;15.67;31.78
34983;BME280;21187;50.976;13.720;2023-04-10T18:34:34;98390.59;;;15.66;31.76
34983;BME280;21187;50.976;13.720;2023-04-10T18:39:37;98387.38;;;15.53;32.13
34983;BME280;21187;50.976;13.720;2023-04-10T18:44:39;98384.22;;;15.47;32.30
34983;BME280;21187;50.976;13.720;2023-04-10T18:49:42;98378.28;;;15.38;32.24
34983;BME280;21187;50.976;13.720;2023-04-10T18:54:44;98380.16;;;15.30;32.49
34983;BME280;21187;50.976;13.720;2023-04-10T18:59:46;98370.00;;;15.27;32.72
34983;BME280;21187;50.976;13.720;2023-04-10T19:04:49;98359.81;;;15.21;32.52
34983;BME280;21187;50.976;13.720;2023-04-10T19:09:51;98359.69;;;15.06;32.95
34983;BME280;21187;50.976;13.720;2023-04-10T19:14:53;98351.78;;;14.94;33.06
34983;BME280;21187;50.976;13.720;2023-04-10T19:19:56;98353.22;;;14.84;33.30
34983;BME280;21187;50.976;13.720;2023-04-10T19:24:58;98340.72;;;14.79;33.41
34983;BME280;21187;50.976;13.720;2023-04-10T19:30:00;98332.13;;;14.77;33.47
34983;BME280;21187;50.976;13.720;2023-04-10T19:35:03;98321.22;;;14.77;33.21
34983;BME280;21187;50.976;13.720;2023-04-10T19:40:05;98302.50;;;14.76;33.35
34983;BME280;21187;50.976;13.720;2023-04-10T19:45:08;98299.75;;;14.72;33.39
34983;BME280;21187;50.976;13.720;2023-04-10T19:50:10;98295.44;;;14.71;33.31
34983;BME280;21187;50.976;13.720;2023-04-10T19:55:12;98293.03;;;14.66;33.33
34983;BME280;21187;50.976;13.720;2023-04-10T20:00:16;98292.91;;;14.55;33.54
34983;BME280;21187;50.976;13.720;2023-04-10T20:05:18;98295.16;;;14.46;34.00
34983;BME280;21187;50.976;13.720;2023-04-10T20:10:20;98298.91;;;14.34;34.40
34983;BME280;21187;50.976;13.720;2023-04-10T20:15:22;98286.00;;;14.27;34.31
34983;BME280;21187;50.976;13.720;2023-04-10T20:20:24;98273.91;;;14.25;34.39
34983;BME280;21187;50.976;13.720;2023-04-10T20:25:26;98259.41;;;14.17;34.47
34983;BME280;21187;50.976;13.720;2023-04-10T20:30:28;98248.88;;;14.15;34.64
34983;BME280;21187;50.976;13.720;2023-04-10T20:35:30;98238.63;;;14.02;34.85
34983;BME280;21187;50.976;13.720;2023-04-10T20:40:32;98209.78;;;13.97;35.00
34983;BME280;21187;50.976;13.720;2023-04-10T20:45:34;98212.91;;;13.99;34.81
34983;BME280;21187;50.976;13.720;2023-04-10T20:50:41;98211.34;;;13.98;34.62
34983;BME280;21187;50.976;13.720;2023-04-10T20:55:43;98212.81;;;13.92;34.93
34983;BME280;21187;50.976;13.720;2023-04-10T21:00:45;98201.94;;;13.92;34.84
34983;BME280;21187;50.976;13.720;2023-04-10T21:05:47;98196.09;;;13.90;34.87
34983;BME280;21187;50.976;13.720;2023-04-10T21:10:48;98191.75;;;13.85;34.78
34983;BME280;21187;50.976;13.720;2023-04-10T21:15:51;98190.16;;;13.80;35.10
34983;BME280;21187;50.976;13.720;2023-04-10T21:20:53;98205.22;;;13.74;35.40
34983;BME280;21187;50.976;13.720;2023-04-10T21:25:55;98195.81;;;13.68;35.31
34983;BME280;21187;50.976;13.720;2023-04-10T21:30:57;98195.88;;;13.72;35.61
34983;BME280;21187;50.976;13.720;2023-04-10T21:35:59;98175.69;;;13.76;35.40
34983;BME280;21187;50.976;13.720;2023-04-10T21:41:01;98166.81;;;13.79;35.38
34983;BME280;21187;50.976;13.720;2023-04-10T21:46:04;98161.31;;;13.76;35.68
34983;BME280;21187;50.976;13.720;2023-04-10T21:51:06;98144.94;;;13.72;35.36
34983;BME280;21187;50.976;13.720;2023-04-10T21:56:08;98146.50;;;13.73;35.46
34983;BME280;21187;50.976;13.720;2023-04-10T22:01:09;98136.03;;;13.75;35.01
34983;BME280;21187;50.976;13.720;2023-04-10T22:06:14;98142.31;;;13.79;35.42
34983;BME280;21187;50.976;13.720;2023-04-10T22:11:16;98145.09;;;13.87;35.17
34983;BME280;21187;50.976;13.720;2023-04-10T22:16:18;98133.16;;;13.95;34.72
34983;BME280;21187;50.976;13.720;2023-04-10T22:21:19;98125.31;;;13.93;35.11
34983;BME280;21187;50.976;13.720;2023-04-10T22:26:21;98123.41;;;13.94;34.95
34983;BME280;21187;50.976;13.720;2023-04-10T22:31:23;98114.81;;;13.92;34.84
34983;BME280;21187;50.976;13.720;2023-04-10T22:36:32;98103.19;;;13.95;35.11
34983;BME280;21187;50.976;13.720;2023-04-10T22:41:34;98096.91;;;13.91;35.12
34983;BME280;21187;50.976;13.720;2023-04-10T22:46:36;98096.91;;;13.91;34.94
34983;BME280;21187;50.976;13.720;2023-04-10T22:51:38;98092.63;;;13.90;35.13
34983;BME280;21187;50.976;13.720;2023-04-10T22:56:42;98084.81;;;13.88;35.03
34983;BME280;21187;50.976;13.720;2023-04-10T23:01:44;98067.66;;;13.80;35.20
34983;BME280;21187;50.976;13.720;2023-04-10T23:06:46;98064.97;;;13.84;35.08
34983;BME280;21187;50.976;13.720;2023-04-10T23:11:48;98057.06;;;13.72;35.57
34983;BME280;21187;50.976;13.720;2023-04-10T23:16:50;98041.03;;;13.63;35.77
34983;BME280;21187;50.976;13.720;2023-04-10T23:21:52;98046.09;;;13.64;35.68
34983;BME280;21187;50.976;13.720;2023-04-10T23:26:54;98030.19;;;13.67;35.54
34983;BME280;21187;50.976;13.720;2023-04-10T23:31:56;98021.25;;;13.70;35.22
34983;BME280;21187;50.976;13.720;2023-04-10T23:36:58;98015.06;;;13.69;35.50
34983;BME280;21187;50.976;13.720;2023-04-10T23:42:00;97992.84;;;13.67;35.86
34983;BME280;21187;50.976;13.720;2023-04-10T23:47:02;97992.47;;;13.65;36.21
34983;BME280;21187;50.976;13.720;2023-04-10T23:52:04;97995.97;;;13.65;36.05
34983;BME280;21187;50.976;13.720;2023-04-10T23:57:06;97979.25;;;13.67;36.13
